sensor_id;sensor_type;location;lat;lon;timestamp;temperature;humidity
75134;HTU21D;63706;44.708;37.780;2022-09-24T00:00:52;13.73;59.65
75134;HTU21D;63706;44.708;37.780;2022-09-24T00:03:19;13.70;59.64
75134;HTU21D;63706;44.708;37.780;2022-09-24T00:05:45;13.70;59.87
75134;HTU21D;63706;44.708;37.780;2022-09-24T00:08:12;13.69;59.76
75134;HTU21D;63706;44.708;37.780;2022-09-24T00:10:38;13.69;59.73
75134;HTU21D;63706;44.708;37.780;2022-09-24T00:13:05;13.70;59.69
75134;HTU21D;63706;44.708;37.780;2022-09-24T00:15:35;13.70;59.64
75134;HTU21D;63706;44.708;37.780;2022-09-24T00:18:01;13.71;59.61
75134;HTU21D;63706;44.708;37.780;2022-09-24T00:20:28;13.70;59.54
75134;HTU21D;63706;44.708;37.780;2022-09-24T00:22:54;13.73;59.54
75134;HTU21D;63706;44.708;37.780;2022-09-24T00:25:20;13.74;59.44
75134;HTU21D;63706;44.708;37.780;2022-09-24T00:28:04;13.77;59.42
75134;HTU21D;63706;44.708;37.780;2022-09-24T00:30:30;13.77;59.35
75134;HTU21D;63706;44.708;37.780;2022-09-24T00:32:56;13.78;59.29
75134;HTU21D;63706;44.708;37.780;2022-09-24T00:35:21;13.77;59.23
75134;HTU21D;63706;44.708;37.780;2022-09-24T00:37:48;13.77;59.25
75134;HTU21D;63706;44.708;37.780;2022-09-24T00:40:13;13.77;59.24
75134;HTU21D;63706;44.708;37.780;2022-09-24T00:42:40;13.79;59.28
75134;HTU21D;63706;44.708;37.780;2022-09-24T00:45:07;13.80;59.60
75134;HTU21D;63706;44.708;37.780;2022-09-24T00:50:02;13.83;59.67
75134;HTU21D;63706;44.708;37.780;2022-09-24T00:52:31;13.79;59.38
75134;HTU21D;63706;44.708;37.780;2022-09-24T00:54:56;13.74;59.28
75134;HTU21D;63706;44.708;37.780;2022-09-24T00:57:22;13.68;59.27
75134;HTU21D;63706;44.708;37.780;2022-09-24T00:59:49;13.65;59.32
75134;HTU21D;63706;44.708;37.780;2022-09-24T01:02:15;13.62;59.32
75134;HTU21D;63706;44.708;37.780;2022-09-24T01:04:41;13.60;59.40
75134;HTU21D;63706;44.708;37.780;2022-09-24T01:07:06;13.58;59.45
75134;HTU21D;63706;44.708;37.780;2022-09-24T01:09:32;13.58;59.54
75134;HTU21D;63706;44.708;37.780;2022-09-24T01:22:16;13.60;59.70
75134;HTU21D;63706;44.708;37.780;2022-09-24T01:30:07;13.65;59.70
75134;HTU21D;63706;44.708;37.780;2022-09-24T01:32:47;13.64;59.63
75134;HTU21D;63706;44.708;37.780;2022-09-24T01:35:17;13.63;59.64
75134;HTU21D;63706;44.708;37.780;2022-09-24T01:37:46;13.65;59.61
75134;HTU21D;63706;44.708;37.780;2022-09-24T01:40:13;13.66;59.69
75134;HTU21D;63706;44.708;37.780;2022-09-24T01:42:39;13.68;59.67
75134;HTU21D;63706;44.708;37.780;2022-09-24T01:45:07;13.70;59.67
75134;HTU21D;63706;44.708;37.780;2022-09-24T01:47:34;13.74;59.66
75134;HTU21D;63706;44.708;37.780;2022-09-24T01:50:11;13.77;59.71
75134;HTU21D;63706;44.708;37.780;2022-09-24T01:52:39;13.81;59.77
75134;HTU21D;63706;44.708;37.780;2022-09-24T01:55:07;13.88;59.73
75134;HTU21D;63706;44.708;37.780;2022-09-24T01:57:38;13.94;60.00
75134;HTU21D;63706;44.708;37.780;2022-09-24T02:00:06;14.04;61.43
75134;HTU21D;63706;44.708;37.780;2022-09-24T02:02:43;14.10;60.73
75134;HTU21D;63706;44.708;37.780;2022-09-24T02:05:12;14.22;62.21
75134;HTU21D;63706;44.708;37.780;2022-09-24T02:07:51;14.26;62.46
75134;HTU21D;63706;44.708;37.780;2022-09-24T02:10:19;14.27;62.78
75134;HTU21D;63706;44.708;37.780;2022-09-24T02:12:46;14.25;63.54
75134;HTU21D;63706;44.708;37.780;2022-09-24T02:15:14;14.19;64.18
75134;HTU21D;63706;44.708;37.780;2022-09-24T02:17:43;14.06;64.43
75134;HTU21D;63706;44.708;37.780;2022-09-24T02:20:12;13.95;64.20
75134;HTU21D;63706;44.708;37.780;2022-09-24T02:22:38;13.85;64.44
75134;HTU21D;63706;44.708;37.780;2022-09-24T02:25:05;13.77;64.68
75134;HTU21D;63706;44.708;37.780;2022-09-24T02:27:33;13.67;64.60
75134;HTU21D;63706;44.708;37.780;2022-09-24T02:29:59;13.61;64.87
75134;HTU21D;63706;44.708;37.780;2022-09-24T02:32:27;13.58;65.27
75134;HTU21D;63706;44.708;37.780;2022-09-24T02:34:55;13.52;65.23
75134;HTU21D;63706;44.708;37.780;2022-09-24T02:37:23;13.50;65.50
75134;HTU21D;63706;44.708;37.780;2022-09-24T02:39:49;13.47;65.37
75134;HTU21D;63706;44.708;37.780;2022-09-24T02:42:15;13.44;65.21
75134;HTU21D;63706;44.708;37.780;2022-09-24T02:44:42;13.44;65.50
75134;HTU21D;63706;44.708;37.780;2022-09-24T02:47:07;13.40;65.43
75134;HTU21D;63706;44.708;37.780;2022-09-24T02:49:33;13.39;65.60
75134;HTU21D;63706;44.708;37.780;2022-09-24T02:51:59;13.39;65.70
75134;HTU21D;63706;44.708;37.780;2022-09-24T02:54:25;13.38;65.88
75134;HTU21D;63706;44.708;37.780;2022-09-24T02:56:51;13.36;66.14
75134;HTU21D;63706;44.708;37.780;2022-09-24T02:59:17;13.36;66.30
75134;HTU21D;63706;44.708;37.780;2022-09-24T03:01:43;13.36;66.47
75134;HTU21D;63706;44.708;37.780;2022-09-24T03:04:09;13.36;66.62
75134;HTU21D;63706;44.708;37.780;2022-09-24T03:06:35;13.34;66.73
75134;HTU21D;63706;44.708;37.780;2022-09-24T03:09:01;13.34;66.97
75134;HTU21D;63706;44.708;37.780;2022-09-24T03:11:28;13.32;67.27
75134;HTU21D;63706;44.708;37.780;2022-09-24T03:13:55;13.31;66.91
75134;HTU21D;63706;44.708;37.780;2022-09-24T03:16:21;13.29;66.84
75134;HTU21D;63706;44.708;37.780;2022-09-24T03:18:47;13.29;66.59
75134;HTU21D;63706;44.708;37.780;2022-09-24T03:21:14;13.29;66.53
75134;HTU21D;63706;44.708;37.780;2022-09-24T03:23:40;13.29;66.62
75134;HTU21D;63706;44.708;37.780;2022-09-24T03:26:06;13.30;66.93
75134;HTU21D;63706;44.708;37.780;2022-09-24T03:28:32;13.31;67.63
75134;HTU21D;63706;44.708;37.780;2022-09-24T03:30:57;13.31;67.09
75134;HTU21D;63706;44.708;37.780;2022-09-24T03:33:39;13.31;67.35
75134;HTU21D;63706;44.708;37.780;2022-09-24T03:36:10;13.29;67.36
75134;HTU21D;63706;44.708;37.780;2022-09-24T03:38:36;13.27;67.50
75134;HTU21D;63706;44.708;37.780;2022-09-24T03:41:03;13.24;67.24
75134;HTU21D;63706;44.708;37.780;2022-09-24T03:43:29;13.23;67.59
75134;HTU21D;63706;44.708;37.780;2022-09-24T03:45:56;13.22;68.35
75134;HTU21D;63706;44.708;37.780;2022-09-24T03:48:22;13.20;67.97
75134;HTU21D;63706;44.708;37.780;2022-09-24T03:50:48;13.17;68.39
75134;HTU21D;63706;44.708;37.780;2022-09-24T03:53:14;13.14;68.04
75134;HTU21D;63706;44.708;37.780;2022-09-24T03:55:44;13.11;67.93
75134;HTU21D;63706;44.708;37.780;2022-09-24T03:58:11;13.09;67.74
75134;HTU21D;63706;44.708;37.780;2022-09-24T04:00:37;13.08;67.87
75134;HTU21D;63706;44.708;37.780;2022-09-24T04:03:03;13.07;67.77
75134;HTU21D;63706;44.708;37.780;2022-09-24T04:05:29;13.05;67.94
75134;HTU21D;63706;44.708;37.780;2022-09-24T04:07:56;13.03;67.69
75134;HTU21D;63706;44.708;37.780;2022-09-24T04:10:22;13.00;67.58
75134;HTU21D;63706;44.708;37.780;2022-09-24T04:12:50;13.02;67.55
75134;HTU21D;63706;44.708;37.780;2022-09-24T04:15:17;13.04;67.51
75134;HTU21D;63706;44.708;37.780;2022-09-24T04:17:56;13.05;67.46
75134;HTU21D;63706;44.708;37.780;2022-09-24T04:20:24;13.08;67.44
75134;HTU21D;63706;44.708;37.780;2022-09-24T04:22:51;13.11;67.41
75134;HTU21D;63706;44.708;37.780;2022-09-24T04:25:17;13.16;67.34
75134;HTU21D;63706;44.708;37.780;2022-09-24T04:27:43;13.21;67.31
75134;HTU21D;63706;44.708;37.780;2022-09-24T04:30:09;13.22;67.27
75134;HTU21D;63706;44.708;37.780;2022-09-24T04:32:37;13.23;67.18
75134;HTU21D;63706;44.708;37.780;2022-09-24T04:35:03;13.24;67.12
75134;HTU21D;63706;44.708;37.780;2022-09-24T04:37:28;13.26;67.21
75134;HTU21D;63706;44.708;37.780;2022-09-24T04:39:54;13.27;67.21
75134;HTU21D;63706;44.708;37.780;2022-09-24T04:42:20;13.31;67.30
75134;HTU21D;63706;44.708;37.780;2022-09-24T04:44:46;13.33;67.96
75134;HTU21D;63706;44.708;37.780;2022-09-24T04:47:13;13.33;67.88
75134;HTU21D;63706;44.708;37.780;2022-09-24T04:49:39;13.33;67.88
75134;HTU21D;63706;44.708;37.780;2022-09-24T04:52:06;13.34;67.66
75134;HTU21D;63706;44.708;37.780;2022-09-24T04:54:33;13.35;67.69
75134;HTU21D;63706;44.708;37.780;2022-09-24T04:56:59;13.39;67.91
75134;HTU21D;63706;44.708;37.780;2022-09-24T04:59:24;13.43;67.91
75134;HTU21D;63706;44.708;37.780;2022-09-24T05:01:50;13.47;68.29
75134;HTU21D;63706;44.708;37.780;2022-09-24T05:04:18;13.49;68.19
75134;HTU21D;63706;44.708;37.780;2022-09-24T05:06:44;13.55;68.75
75134;HTU21D;63706;44.708;37.780;2022-09-24T05:09:10;13.61;68.17
75134;HTU21D;63706;44.708;37.780;2022-09-24T05:11:35;0.00;68.32
75134;HTU21D;63706;44.708;37.780;2022-09-24T05:14:01;13.88;68.75
75134;HTU21D;63706;44.708;37.780;2022-09-24T05:16:27;14.27;68.44
75134;HTU21D;63706;44.708;37.780;2022-09-24T05:18:54;14.60;68.04
75134;HTU21D;63706;44.708;37.780;2022-09-24T05:21:20;15.38;68.25
75134;HTU21D;63706;44.708;37.780;2022-09-24T05:23:46;16.52;66.72
75134;HTU21D;63706;44.708;37.780;2022-09-24T05:26:12;17.52;65.59
75134;HTU21D;63706;44.708;37.780;2022-09-24T05:28:56;18.78;64.06
75134;HTU21D;63706;44.708;37.780;2022-09-24T05:31:22;20.00;62.66
75134;HTU21D;63706;44.708;37.780;2022-09-24T05:33:48;20.93;60.80
75134;HTU21D;63706;44.708;37.780;2022-09-24T05:36:14;21.30;59.83
75134;HTU21D;63706;44.708;37.780;2022-09-24T05:38:40;21.68;59.99
75134;HTU21D;63706;44.708;37.780;2022-09-24T05:41:06;22.36;58.81
75134;HTU21D;63706;44.708;37.780;2022-09-24T05:43:32;22.93;57.89
75134;HTU21D;63706;44.708;37.780;2022-09-24T05:45:57;23.50;57.41
75134;HTU21D;63706;44.708;37.780;2022-09-24T05:48:24;23.84;56.35
75134;HTU21D;63706;44.708;37.780;2022-09-24T05:50:50;24.17;56.34
75134;HTU21D;63706;44.708;37.780;2022-09-24T05:53:20;24.50;55.38
75134;HTU21D;63706;44.708;37.780;2022-09-24T05:55:46;24.66;54.81
75134;HTU21D;63706;44.708;37.780;2022-09-24T05:58:12;24.98;53.73
75134;HTU21D;63706;44.708;37.780;2022-09-24T06:00:38;25.06;53.39
75134;HTU21D;63706;44.708;37.780;2022-09-24T06:03:05;24.80;52.85
75134;HTU21D;63706;44.708;37.780;2022-09-24T06:05:32;24.59;53.51
75134;HTU21D;63706;44.708;37.780;2022-09-24T06:08:00;24.75;53.47
75134;HTU21D;63706;44.708;37.780;2022-09-24T06:10:26;24.55;52.56
75134;HTU21D;63706;44.708;37.780;2022-09-24T06:12:52;23.88;52.66
75134;HTU21D;63706;44.708;37.780;2022-09-24T06:15:18;23.16;53.82
75134;HTU21D;63706;44.708;37.780;2022-09-24T06:17:45;22.57;54.65
75134;HTU21D;63706;44.708;37.780;2022-09-24T06:20:11;22.06;55.02
75134;HTU21D;63706;44.708;37.780;2022-09-24T06:22:38;21.46;55.98
75134;HTU21D;63706;44.708;37.780;2022-09-24T06:25:05;20.91;56.36
75134;HTU21D;63706;44.708;37.780;2022-09-24T06:27:31;20.42;56.83
75134;HTU21D;63706;44.708;37.780;2022-09-24T06:29:56;19.95;57.25
75134;HTU21D;63706;44.708;37.780;2022-09-24T06:32:23;19.55;57.74
75134;HTU21D;63706;44.708;37.780;2022-09-24T06:34:49;19.22;58.23
75134;HTU21D;63706;44.708;37.780;2022-09-24T06:37:15;18.91;58.63
75134;HTU21D;63706;44.708;37.780;2022-09-24T06:39:41;18.66;58.89
75134;HTU21D;63706;44.708;37.780;2022-09-24T06:42:07;18.47;59.14
75134;HTU21D;63706;44.708;37.780;2022-09-24T06:44:33;18.30;59.38
75134;HTU21D;63706;44.708;37.780;2022-09-24T06:46:59;18.14;59.56
75134;HTU21D;63706;44.708;37.780;2022-09-24T06:49:26;17.98;59.77
75134;HTU21D;63706;44.708;37.780;2022-09-24T06:51:55;17.84;59.89
75134;HTU21D;63706;44.708;37.780;2022-09-24T06:54:23;17.66;59.95
75134;HTU21D;63706;44.708;37.780;2022-09-24T06:56:50;17.50;60.21
75134;HTU21D;63706;44.708;37.780;2022-09-24T06:59:17;17.38;60.41
75134;HTU21D;63706;44.708;37.780;2022-09-24T07:01:43;17.36;60.64
75134;HTU21D;63706;44.708;37.780;2022-09-24T07:04:09;17.30;60.56
75134;HTU21D;63706;44.708;37.780;2022-09-24T07:06:35;17.23;60.63
75134;HTU21D;63706;44.708;37.780;2022-09-24T07:09:20;17.19;60.66
75134;HTU21D;63706;44.708;37.780;2022-09-24T07:11:47;17.16;60.90
75134;HTU21D;63706;44.708;37.780;2022-09-24T07:14:13;17.15;60.79
75134;HTU21D;63706;44.708;37.780;2022-09-24T07:16:39;17.13;61.00
75134;HTU21D;63706;44.708;37.780;2022-09-24T07:19:05;17.11;60.96
75134;HTU21D;63706;44.708;37.780;2022-09-24T07:21:31;17.15;61.10
75134;HTU21D;63706;44.708;37.780;2022-09-24T07:23:57;17.18;61.16
75134;HTU21D;63706;44.708;37.780;2022-09-24T07:26:23;17.23;61.21
75134;HTU21D;63706;44.708;37.780;2022-09-24T07:28:48;17.35;61.33
75134;HTU21D;63706;44.708;37.780;2022-09-24T07:31:14;17.47;61.35
75134;HTU21D;63706;44.708;37.780;2022-09-24T07:33:41;17.58;61.16
75134;HTU21D;63706;44.708;37.780;2022-09-24T07:36:07;17.65;61.17
75134;HTU21D;63706;44.708;37.780;2022-09-24T07:38:34;17.75;61.10
75134;HTU21D;63706;44.708;37.780;2022-09-24T07:41:00;17.87;60.96
75134;HTU21D;63706;44.708;37.780;2022-09-24T07:43:28;17.99;60.78
75134;HTU21D;63706;44.708;37.780;2022-09-24T07:45:54;18.05;60.41
75134;HTU21D;63706;44.708;37.780;2022-09-24T07:48:21;18.04;60.26
75134;HTU21D;63706;44.708;37.780;2022-09-24T07:50:47;18.03;60.31
75134;HTU21D;63706;44.708;37.780;2022-09-24T07:53:12;18.03;60.14
75134;HTU21D;63706;44.708;37.780;2022-09-24T07:55:39;17.98;60.02
75134;HTU21D;63706;44.708;37.780;2022-09-24T07:58:11;17.91;59.96
75134;HTU21D;63706;44.708;37.780;2022-09-24T08:00:38;17.87;59.86
75134;HTU21D;63706;44.708;37.780;2022-09-24T08:03:03;17.82;59.77
75134;HTU21D;63706;44.708;37.780;2022-09-24T08:05:30;17.78;59.77
75134;HTU21D;63706;44.708;37.780;2022-09-24T08:07:57;17.77;59.48
75134;HTU21D;63706;44.708;37.780;2022-09-24T08:10:24;17.76;59.45
75134;HTU21D;63706;44.708;37.780;2022-09-24T08:12:50;17.82;59.59
75134;HTU21D;63706;44.708;37.780;2022-09-24T08:15:16;17.95;59.59
75134;HTU21D;63706;44.708;37.780;2022-09-24T08:17:42;18.05;59.35
75134;HTU21D;63706;44.708;37.780;2022-09-24T08:20:08;18.12;59.23
75134;HTU21D;63706;44.708;37.780;2022-09-24T08:22:34;18.18;59.17
75134;HTU21D;63706;44.708;37.780;2022-09-24T08:25:00;18.20;58.95
75134;HTU21D;63706;44.708;37.780;2022-09-24T08:27:28;18.23;59.03
75134;HTU21D;63706;44.708;37.780;2022-09-24T08:29:54;18.32;59.09
75134;HTU21D;63706;44.708;37.780;2022-09-24T08:32:22;18.42;59.03
75134;HTU21D;63706;44.708;37.780;2022-09-24T08:34:48;18.53;58.93
75134;HTU21D;63706;44.708;37.780;2022-09-24T08:37:13;18.65;58.88
75134;HTU21D;63706;44.708;37.780;2022-09-24T08:39:39;18.80;58.75
75134;HTU21D;63706;44.708;37.780;2022-09-24T08:42:05;18.94;58.70
75134;HTU21D;63706;44.708;37.780;2022-09-24T08:44:39;19.08;58.40
75134;HTU21D;63706;44.708;37.780;2022-09-24T08:47:32;19.23;57.70
75134;HTU21D;63706;44.708;37.780;2022-09-24T08:50:16;19.33;58.03
75134;HTU21D;63706;44.708;37.780;2022-09-24T08:57:39;19.74;56.94
75134;HTU21D;63706;44.708;37.780;2022-09-24T09:00:12;19.88;57.00
75134;HTU21D;63706;44.708;37.780;2022-09-24T09:05:26;20.05;55.99
75134;HTU21D;63706;44.708;37.780;2022-09-24T09:07:58;20.03;55.76
75134;HTU21D;63706;44.708;37.780;2022-09-24T09:10:36;19.99;55.26
75134;HTU21D;63706;44.708;37.780;2022-09-24T09:15:53;20.01;55.55
75134;HTU21D;63706;44.708;37.780;2022-09-24T09:18:23;20.04;55.29
75134;HTU21D;63706;44.708;37.780;2022-09-24T09:20:50;20.03;55.24
75134;HTU21D;63706;44.708;37.780;2022-09-24T09:23:28;20.00;55.17
75134;HTU21D;63706;44.708;37.780;2022-09-24T09:25:57;19.92;54.75
75134;HTU21D;63706;44.708;37.780;2022-09-24T09:28:27;19.83;54.86
75134;HTU21D;63706;44.708;37.780;2022-09-24T09:41:15;19.48;55.16
75134;HTU21D;63706;44.708;37.780;2022-09-24T09:43:44;19.50;55.21
75134;HTU21D;63706;44.708;37.780;2022-09-24T09:46:21;19.53;54.90
75134;HTU21D;63706;44.708;37.780;2022-09-24T09:48:52;19.63;55.20
75134;HTU21D;63706;44.708;37.780;2022-09-24T09:51:19;19.77;54.70
75134;HTU21D;63706;44.708;37.780;2022-09-24T09:53:58;19.87;54.53
75134;HTU21D;63706;44.708;37.780;2022-09-24T09:56:29;19.98;54.18
75134;HTU21D;63706;44.708;37.780;2022-09-24T09:59:28;20.07;53.14
75134;HTU21D;63706;44.708;37.780;2022-09-24T10:01:50;20.13;53.61
75134;HTU21D;63706;44.708;37.780;2022-09-24T10:06:45;20.20;53.12
75134;HTU21D;63706;44.708;37.780;2022-09-24T10:09:13;20.19;53.04
75134;HTU21D;63706;44.708;37.780;2022-09-24T10:11:39;20.22;53.01
75134;HTU21D;63706;44.708;37.780;2022-09-24T10:14:11;20.26;52.77
75134;HTU21D;63706;44.708;37.780;2022-09-24T10:16:38;20.32;52.92
75134;HTU21D;63706;44.708;37.780;2022-09-24T10:19:11;20.36;52.11
75134;HTU21D;63706;44.708;37.780;2022-09-24T10:21:39;20.44;51.79
75134;HTU21D;63706;44.708;37.780;2022-09-24T10:24:11;20.51;51.96
75134;HTU21D;63706;44.708;37.780;2022-09-24T10:26:42;20.58;51.91
75134;HTU21D;63706;44.708;37.780;2022-09-24T10:29:29;20.63;51.97
75134;HTU21D;63706;44.708;37.780;2022-09-24T10:32:16;20.68;51.14
75134;HTU21D;63706;44.708;37.780;2022-09-24T10:34:53;20.68;50.72
75134;HTU21D;63706;44.708;37.780;2022-09-24T10:37:21;20.69;50.23
75134;HTU21D;63706;44.708;37.780;2022-09-24T10:39:55;20.71;50.49
75134;HTU21D;63706;44.708;37.780;2022-09-24T10:42:25;20.72;49.31
75134;HTU21D;63706;44.708;37.780;2022-09-24T10:44:52;20.76;50.10
75134;HTU21D;63706;44.708;37.780;2022-09-24T10:47:20;20.81;49.67
75134;HTU21D;63706;44.708;37.780;2022-09-24T10:55:12;20.96;49.90
75134;HTU21D;63706;44.708;37.780;2022-09-24T11:00:22;21.05;49.49
75134;HTU21D;63706;44.708;37.780;2022-09-24T11:02:59;21.08;49.50
75134;HTU21D;63706;44.708;37.780;2022-09-24T11:05:29;21.08;49.69
75134;HTU21D;63706;44.708;37.780;2022-09-24T11:08:14;21.05;49.50
75134;HTU21D;63706;44.708;37.780;2022-09-24T11:16:07;20.83;49.21
75134;HTU21D;63706;44.708;37.780;2022-09-24T11:21:36;20.70;48.90
75134;HTU21D;63706;44.708;37.780;2022-09-24T11:26:34;20.49;48.81
75134;HTU21D;63706;44.708;37.780;2022-09-24T11:29:12;20.39;48.52
75134;HTU21D;63706;44.708;37.780;2022-09-24T11:31:40;20.28;48.43
75134;HTU21D;63706;44.708;37.780;2022-09-24T11:47:16;20.17;48.33
75134;HTU21D;63706;44.708;37.780;2022-09-24T11:52:42;20.14;48.48
75134;HTU21D;63706;44.708;37.780;2022-09-24T11:57:36;20.16;48.34
75134;HTU21D;63706;44.708;37.780;2022-09-24T12:02:39;20.15;48.63
75134;HTU21D;63706;44.708;37.780;2022-09-24T12:05:07;20.14;48.68
75134;HTU21D;63706;44.708;37.780;2022-09-24T12:12:41;19.99;48.57
75134;HTU21D;63706;44.708;37.780;2022-09-24T12:15:15;19.91;48.69
75134;HTU21D;63706;44.708;37.780;2022-09-24T12:17:45;19.83;48.72
75134;HTU21D;63706;44.708;37.780;2022-09-24T12:22:39;19.54;48.66
75134;HTU21D;63706;44.708;37.780;2022-09-24T12:25:10;19.37;48.75
75134;HTU21D;63706;44.708;37.780;2022-09-24T12:27:37;19.20;48.86
75134;HTU21D;63706;44.708;37.780;2022-09-24T12:35:44;18.59;49.95
75134;HTU21D;63706;44.708;37.780;2022-09-24T12:43:28;18.19;50.90
75134;HTU21D;63706;44.708;37.780;2022-09-24T12:45:57;18.06;51.10
75134;HTU21D;63706;44.708;37.780;2022-09-24T12:48:23;17.92;51.36
75134;HTU21D;63706;44.708;37.780;2022-09-24T12:50:54;17.79;51.79
75134;HTU21D;63706;44.708;37.780;2022-09-24T12:53:21;17.65;52.02
75134;HTU21D;63706;44.708;37.780;2022-09-24T12:55:49;17.51;52.10
75134;HTU21D;63706;44.708;37.780;2022-09-24T12:58:36;17.43;52.43
75134;HTU21D;63706;44.708;37.780;2022-09-24T13:03:38;17.26;53.41
75134;HTU21D;63706;44.708;37.780;2022-09-24T13:06:18;17.18;53.60
75134;HTU21D;63706;44.708;37.780;2022-09-24T13:08:45;17.17;53.99
75134;HTU21D;63706;44.708;37.780;2022-09-24T13:14:04;17.13;55.19
75134;HTU21D;63706;44.708;37.780;2022-09-24T13:16:30;17.07;55.75
75134;HTU21D;63706;44.708;37.780;2022-09-24T13:19:03;17.03;56.30
75134;HTU21D;63706;44.708;37.780;2022-09-24T13:21:30;17.01;56.30
75134;HTU21D;63706;44.708;37.780;2022-09-24T13:23:56;16.96;56.62
75134;HTU21D;63706;44.708;37.780;2022-09-24T13:26:32;16.94;57.29
75134;HTU21D;63706;44.708;37.780;2022-09-24T13:28:59;16.91;57.31
75134;HTU21D;63706;44.708;37.780;2022-09-24T13:31:34;16.90;57.39
75134;HTU21D;63706;44.708;37.780;2022-09-24T13:46:52;16.78;57.81
75134;HTU21D;63706;44.708;37.780;2022-09-24T13:49:20;16.78;57.70
75134;HTU21D;63706;44.708;37.780;2022-09-24T13:51:51;16.79;57.93
75134;HTU21D;63706;44.708;37.780;2022-09-24T13:54:25;16.75;57.87
75134;HTU21D;63706;44.708;37.780;2022-09-24T13:56:56;16.74;57.66
75134;HTU21D;63706;44.708;37.780;2022-09-24T13:59:23;16.73;58.08
75134;HTU21D;63706;44.708;37.780;2022-09-24T14:01:49;16.67;57.95
75134;HTU21D;63706;44.708;37.780;2022-09-24T14:04:16;16.63;57.92
75134;HTU21D;63706;44.708;37.780;2022-09-24T14:06:47;16.56;58.00
75134;HTU21D;63706;44.708;37.780;2022-09-24T14:11:47;16.48;57.98
75134;HTU21D;63706;44.708;37.780;2022-09-24T14:14:14;16.44;58.00
75134;HTU21D;63706;44.708;37.780;2022-09-24T14:16:41;16.40;57.90
75134;HTU21D;63706;44.708;37.780;2022-09-24T14:19:11;16.35;57.96
75134;HTU21D;63706;44.708;37.780;2022-09-24T14:21:38;16.31;57.84
75134;HTU21D;63706;44.708;37.780;2022-09-24T14:24:22;16.30;58.31
75134;HTU21D;63706;44.708;37.780;2022-09-24T14:27:00;16.24;57.93
75134;HTU21D;63706;44.708;37.780;2022-09-24T14:29:27;16.20;57.97
75134;HTU21D;63706;44.708;37.780;2022-09-24T14:31:55;16.16;57.89
75134;HTU21D;63706;44.708;37.780;2022-09-24T14:36:48;16.08;58.38
75134;HTU21D;63706;44.708;37.780;2022-09-24T14:39:15;16.03;58.41
75134;HTU21D;63706;44.708;37.780;2022-09-24T14:41:41;16.00;58.50
75134;HTU21D;63706;44.708;37.780;2022-09-24T14:44:11;15.98;58.48
75134;HTU21D;63706;44.708;37.780;2022-09-24T14:46:57;15.99;58.41
75134;HTU21D;63706;44.708;37.780;2022-09-24T14:49:31;16.01;58.30
75134;HTU21D;63706;44.708;37.780;2022-09-24T14:52:20;15.99;58.19
75134;HTU21D;63706;44.708;37.780;2022-09-24T14:54:49;15.98;58.10
75134;HTU21D;63706;44.708;37.780;2022-09-24T14:57:24;15.93;58.31
75134;HTU21D;63706;44.708;37.780;2022-09-24T15:02:41;15.90;58.28
75134;HTU21D;63706;44.708;37.780;2022-09-24T15:05:07;15.87;58.26
75134;HTU21D;63706;44.708;37.780;2022-09-24T15:07:33;15.85;58.23
75134;HTU21D;63706;44.708;37.780;2022-09-24T15:10:00;15.84;58.23
75134;HTU21D;63706;44.708;37.780;2022-09-24T15:12:27;15.83;58.70
75134;HTU21D;63706;44.708;37.780;2022-09-24T15:14:58;15.87;59.49
75134;HTU21D;63706;44.708;37.780;2022-09-24T15:17:31;15.96;59.18
75134;HTU21D;63706;44.708;37.780;2022-09-24T15:19:58;16.02;59.16
75134;HTU21D;63706;44.708;37.780;2022-09-24T15:22:24;16.10;59.23
75134;HTU21D;63706;44.708;37.780;2022-09-24T15:24:52;16.16;59.24
75134;HTU21D;63706;44.708;37.780;2022-09-24T15:27:20;16.25;59.41
75134;HTU21D;63706;44.708;37.780;2022-09-24T15:29:46;16.34;59.48
75134;HTU21D;63706;44.708;37.780;2022-09-24T15:32:16;16.42;59.38
75134;HTU21D;63706;44.708;37.780;2022-09-24T15:34:42;16.47;59.48
75134;HTU21D;63706;44.708;37.780;2022-09-24T15:37:08;16.50;59.42
75134;HTU21D;63706;44.708;37.780;2022-09-24T15:39:36;16.47;59.17
75134;HTU21D;63706;44.708;37.780;2022-09-24T15:42:02;16.46;59.10
75134;HTU21D;63706;44.708;37.780;2022-09-24T15:44:28;16.46;59.33
75134;HTU21D;63706;44.708;37.780;2022-09-24T15:46:54;16.46;59.30
75134;HTU21D;63706;44.708;37.780;2022-09-24T15:49:20;16.43;59.04
75134;HTU21D;63706;44.708;37.780;2022-09-24T15:52:06;16.37;59.06
75134;HTU21D;63706;44.708;37.780;2022-09-24T15:54:32;16.32;59.26
75134;HTU21D;63706;44.708;37.780;2022-09-24T15:56:58;16.26;59.14
75134;HTU21D;63706;44.708;37.780;2022-09-24T15:59:25;16.18;59.32
75134;HTU21D;63706;44.708;37.780;2022-09-24T16:01:52;16.08;59.28
75134;HTU21D;63706;44.708;37.780;2022-09-24T16:04:19;15.97;59.17
75134;HTU21D;63706;44.708;37.780;2022-09-24T16:06:45;15.82;59.09
75134;HTU21D;63706;44.708;37.780;2022-09-24T16:09:10;15.68;59.17
75134;HTU21D;63706;44.708;37.780;2022-09-24T16:11:36;15.53;59.15
75134;HTU21D;63706;44.708;37.780;2022-09-24T16:14:02;15.43;59.09
75134;HTU21D;63706;44.708;37.780;2022-09-24T16:16:28;15.32;59.20
75134;HTU21D;63706;44.708;37.780;2022-09-24T16:18:53;15.24;59.31
75134;HTU21D;63706;44.708;37.780;2022-09-24T16:21:19;15.16;59.45
75134;HTU21D;63706;44.708;37.780;2022-09-24T16:23:45;15.11;59.66
75134;HTU21D;63706;44.708;37.780;2022-09-24T16:26:11;15.04;59.54
75134;HTU21D;63706;44.708;37.780;2022-09-24T16:28:37;15.00;59.53
75134;HTU21D;63706;44.708;37.780;2022-09-24T16:31:06;14.94;59.49
75134;HTU21D;63706;44.708;37.780;2022-09-24T16:33:35;14.92;59.44
75134;HTU21D;63706;44.708;37.780;2022-09-24T16:36:05;14.87;59.51
75134;HTU21D;63706;44.708;37.780;2022-09-24T16:38:35;14.83;59.59
75134;HTU21D;63706;44.708;37.780;2022-09-24T16:41:00;14.78;59.55
75134;HTU21D;63706;44.708;37.780;2022-09-24T16:43:27;14.72;59.46
75134;HTU21D;63706;44.708;37.780;2022-09-24T16:45:52;14.67;59.54
75134;HTU21D;63706;44.708;37.780;2022-09-24T16:48:18;14.62;59.50
75134;HTU21D;63706;44.708;37.780;2022-09-24T16:50:44;14.57;59.42
75134;HTU21D;63706;44.708;37.780;2022-09-24T16:53:10;14.53;59.39
75134;HTU21D;63706;44.708;37.780;2022-09-24T16:55:35;14.49;59.38
75134;HTU21D;63706;44.708;37.780;2022-09-24T16:58:01;14.47;59.45
75134;HTU21D;63706;44.708;37.780;2022-09-24T17:00:27;14.43;59.51
75134;HTU21D;63706;44.708;37.780;2022-09-24T17:02:53;14.42;59.48
75134;HTU21D;63706;44.708;37.780;2022-09-24T17:05:19;14.40;59.60
75134;HTU21D;63706;44.708;37.780;2022-09-24T17:07:45;14.37;59.62
75134;HTU21D;63706;44.708;37.780;2022-09-24T17:10:11;14.34;59.70
75134;HTU21D;63706;44.708;37.780;2022-09-24T17:12:48;14.32;59.90
75134;HTU21D;63706;44.708;37.780;2022-09-24T17:15:15;14.27;59.80